Fayette, Missouri
Current Conditions -  °F | °C
As of 10:15 AM on Saturday 25 Oct 2014 (Local Time) from KVER Reporting Station
Clear Clear  
Wind Chill: 19°   Ceiling: Unl
Heat Index: 19°   Visibility: 10mi
Dew Point: 17°   Wind: 0mph
Humidity: 92%   Direction: NA
Pressure: 30.07"   Gusts: NA
Location:  39.15°N, 92.68°W
Report Text: KVER 251515Z AUTO 00000KT 10SM CLR 19/17 A3007 RMK AO2 T01860172
Loading
Personal Weather Stations






























Interactive Weather Map
Tropical Storm Tracking
New forecast layout! Learn more

10-Day Weather Forecast

Advertisements
Track Severe Weather on mobile